createdAt,value
2022-12-17T00:03:53.278Z,72.70
2022-12-17T00:09:18.735Z,83.80
2022-12-17T00:14:40.275Z,83.00
2022-12-17T00:20:04.298Z,79.50
2022-12-17T00:25:26.493Z,82.70
2022-12-17T00:30:48.273Z,82.30
2022-12-17T00:36:12.138Z,75.20
2022-12-17T00:41:34.081Z,79.90
2022-12-17T00:46:58.126Z,79.80
2022-12-17T00:52:20.464Z,74.80
2022-12-17T00:57:42.313Z,74.00
2022-12-17T01:03:04.637Z,81.20
2022-12-17T01:08:30.569Z,83.30
2022-12-17T01:13:52.192Z,80.40
2022-12-17T01:19:15.377Z,74.40
2022-12-17T01:24:41.612Z,65.70
2022-12-17T01:30:08.009Z,73.80
2022-12-17T01:35:29.680Z,77.40
2022-12-17T01:40:53.276Z,70.60
2022-12-17T01:46:15.914Z,74.30
2022-12-17T01:51:38.722Z,69.80
2022-12-17T02:09:28.530Z,66.80
2022-12-17T02:15:35.668Z,57.00
2022-12-17T02:21:08.462Z,63.10
2022-12-17T02:27:04.737Z,59.80
2022-12-17T02:32:30.551Z,62.60
2022-12-17T02:37:53.425Z,64.50
2022-12-17T02:43:23.777Z,67.50
2022-12-17T02:48:52.280Z,66.30
2022-12-17T02:54:15.350Z,64.90
2022-12-17T02:59:40.686Z,62.80
2022-12-17T03:05:36.009Z,59.70
2022-12-17T03:10:53.748Z,57.30
2022-12-17T03:16:35.678Z,55.90
2022-12-17T03:22:08.591Z,61.40
2022-12-17T03:27:54.905Z,60.40
2022-12-17T03:33:19.080Z,53.90
2022-12-17T03:44:30.002Z,94.90
2022-12-17T03:50:40.023Z,49.60
2022-12-17T03:56:12.507Z,46.90
2022-12-17T04:02:01.100Z,46.80
2022-12-17T04:07:28.042Z,164.40
2022-12-17T04:12:56.010Z,48.60
2022-12-17T04:18:34.086Z,44.40
2022-12-17T04:24:29.623Z,44.30
2022-12-17T04:29:53.282Z,46.40
2022-12-17T04:35:16.642Z,45.90
2022-12-17T04:40:44.072Z,47.80
2022-12-17T04:46:09.244Z,51.60
2022-12-17T04:51:36.752Z,45.50
2022-12-17T04:56:59.309Z,118.50
2022-12-17T05:02:29.701Z,48.10
2022-12-17T05:07:54.814Z,46.50
2022-12-17T05:13:19.413Z,48.00
2022-12-17T05:18:44.348Z,47.20
2022-12-17T05:24:09.997Z,50.00
2022-12-17T05:29:33.530Z,48.00
2022-12-17T05:35:01.765Z,49.50
2022-12-17T05:40:25.494Z,49.90
2022-12-17T05:45:48.117Z,48.60
2022-12-17T05:57:04.713Z,48.40
2022-12-17T06:02:33.019Z,52.70
2022-12-17T06:07:58.239Z,53.50
2022-12-17T06:13:21.407Z,49.10
2022-12-17T06:19:06.302Z,50.50
2022-12-17T06:24:29.972Z,50.70
2022-12-17T06:30:22.554Z,51.40
2022-12-17T06:35:54.983Z,51.30
2022-12-17T06:41:22.367Z,47.70
2022-12-17T06:46:45.455Z,50.60
2022-12-17T06:52:13.811Z,53.00
2022-12-17T06:57:54.066Z,51.80
2022-12-17T07:03:17.386Z,54.60
2022-12-17T07:08:40.630Z,51.00
2022-12-17T07:19:44.291Z,50.80
2022-12-17T07:25:06.807Z,51.10
2022-12-17T07:30:29.521Z,50.40
2022-12-17T07:35:57.882Z,54.30
2022-12-17T07:48:10.573Z,52.60
2022-12-17T07:53:49.613Z,52.20
2022-12-17T07:59:12.094Z,50.50
2022-12-17T08:04:40.117Z,50.70
2022-12-17T08:10:05.938Z,56.40
2022-12-17T08:15:37.596Z,53.30
2022-12-17T08:21:34.361Z,52.70
2022-12-17T08:26:58.595Z,56.70
2022-12-17T08:32:56.435Z,54.00
2022-12-17T08:39:15.583Z,55.20
2022-12-17T08:44:42.548Z,53.50
2022-12-17T08:50:13.787Z,55.40
2022-12-17T08:56:16.308Z,55.50
2022-12-17T09:01:58.748Z,57.40
2022-12-17T09:15:32.410Z,60.00
2022-12-17T09:20:34.933Z,60.90
2022-12-17T09:26:24.119Z,72.30
2022-12-17T09:38:00.057Z,62.70
2022-12-17T09:44:27.051Z,70.10
2022-12-17T09:50:11.367Z,66.00
2022-12-17T09:55:56.987Z,71.20
2022-12-17T10:01:47.611Z,71.70
2022-12-17T10:08:05.954Z,62.30
2022-12-17T10:14:15.616Z,65.70
2022-12-17T10:20:13.426Z,67.70
2022-12-17T10:25:36.881Z,66.70
2022-12-17T10:30:58.573Z,70.80
2022-12-17T10:36:22.590Z,70.80
2022-12-17T10:41:49.837Z,67.50
2022-12-17T10:47:16.228Z,72.90
2022-12-17T10:52:47.206Z,66.20
2022-12-17T10:58:10.907Z,66.10
2022-12-17T11:04:00.932Z,69.00
2022-12-17T11:09:23.920Z,63.10
2022-12-17T11:14:46.639Z,69.10
2022-12-17T11:21:04.258Z,64.30
2022-12-17T11:26:43.900Z,64.80
2022-12-17T11:35:27.441Z,67.10
2022-12-17T11:46:00.974Z,68.00
2022-12-17T11:51:57.412Z,74.00
2022-12-17T11:57:34.242Z,71.60
2022-12-17T12:03:29.401Z,80.10
2022-12-17T12:09:01.620Z,78.20
2022-12-17T12:21:29.231Z,75.10
2022-12-17T12:27:53.032Z,77.70
2022-12-17T12:33:21.068Z,79.10
2022-12-17T12:44:57.696Z,79.20
2022-12-17T12:51:04.803Z,77.70
2022-12-17T12:56:47.353Z,82.10
2022-12-17T13:02:14.177Z,79.30
2022-12-17T13:07:37.993Z,77.70
2022-12-17T13:13:14.827Z,82.80
2022-12-17T13:18:26.530Z,82.00
2022-12-17T13:23:50.574Z,81.60
2022-12-17T13:29:25.176Z,79.70
2022-12-17T13:34:36.945Z,90.00
2022-12-17T13:39:59.971Z,84.10
2022-12-17T13:45:04.602Z,83.20
2022-12-17T13:55:41.313Z,78.70
2022-12-17T14:00:44.421Z,84.30
2022-12-17T14:05:48.084Z,75.20
2022-12-17T14:11:14.692Z,80.70
2022-12-17T14:16:21.519Z,79.60
2022-12-17T14:21:27.462Z,75.20
2022-12-17T14:26:30.703Z,178.20
2022-12-17T14:31:33.833Z,74.70
2022-12-17T14:36:42.330Z,77.40
2022-12-17T14:42:04.267Z,76.50
2022-12-17T14:47:28.755Z,79.00
2022-12-17T14:52:37.970Z,79.00
2022-12-17T14:57:41.151Z,77.30
2022-12-17T15:02:47.236Z,75.80
2022-12-17T15:07:52.168Z,78.10
2022-12-17T15:12:55.278Z,76.90
2022-12-17T15:17:58.453Z,81.00
2022-12-17T15:23:02.557Z,85.20
2022-12-17T15:28:07.002Z,86.40
2022-12-17T15:33:10.831Z,96.00
2022-12-17T15:38:14.148Z,101.00
2022-12-17T15:43:17.413Z,94.90
2022-12-17T15:48:23.498Z,106.80
2022-12-17T15:53:26.649Z,106.50
2022-12-17T15:58:31.130Z,106.30
2022-12-17T16:03:41.577Z,167.10
2022-12-17T16:08:53.160Z,99.60
2022-12-17T16:14:00.224Z,109.40
2022-12-17T16:19:04.302Z,107.90
2022-12-17T16:24:08.731Z,116.10
2022-12-17T16:29:14.490Z,111.70
2022-12-17T16:34:18.063Z,115.80
2022-12-17T16:39:21.743Z,112.40
2022-12-17T16:44:24.950Z,116.90
2022-12-17T16:49:28.115Z,114.30
2022-12-17T16:54:32.834Z,112.70
2022-12-17T16:59:35.944Z,113.40
2022-12-17T17:04:39.446Z,108.20
2022-12-17T17:09:42.508Z,115.70
2022-12-17T17:14:47.562Z,129.60
2022-12-17T17:19:52.284Z,109.70
2022-12-17T17:24:55.322Z,116.80
2022-12-17T17:30:03.626Z,142.40
2022-12-17T17:35:07.685Z,119.40
2022-12-17T17:40:11.707Z,112.70
2022-12-17T17:45:15.822Z,229.80
2022-12-17T17:50:19.097Z,128.90
2022-12-17T17:55:22.180Z,173.90
2022-12-17T18:00:25.302Z,163.20
2022-12-17T18:05:28.455Z,357.60
2022-12-17T18:10:32.344Z,125.40
2022-12-17T18:15:35.406Z,119.10
2022-12-17T18:20:38.654Z,122.10
2022-12-17T18:25:41.723Z,116.40
2022-12-17T18:30:44.931Z,111.80
2022-12-17T18:35:48.170Z,115.20
2022-12-17T18:40:51.482Z,104.20
2022-12-17T18:45:57.796Z,106.00
2022-12-17T18:51:06.150Z,144.20
2022-12-17T18:56:11.087Z,118.30
2022-12-17T19:01:28.953Z,109.50
2022-12-17T19:06:34.387Z,121.20
2022-12-17T19:11:43.328Z,125.00
2022-12-17T19:16:52.086Z,137.80
2022-12-17T19:22:02.498Z,158.40
2022-12-17T19:27:07.035Z,128.20
2022-12-17T19:32:14.652Z,112.20
2022-12-17T19:37:21.686Z,106.00
2022-12-17T19:42:25.881Z,96.10
2022-12-17T19:47:31.021Z,86.20
2022-12-17T19:52:36.121Z,93.50
2022-12-17T19:57:40.326Z,79.50
2022-12-17T20:02:45.486Z,96.70
2022-12-17T20:07:55.225Z,199.40
2022-12-17T20:13:15.944Z,95.40
2022-12-17T20:18:19.768Z,89.50
2022-12-17T20:23:28.792Z,93.60
2022-12-17T20:28:34.070Z,77.30
2022-12-17T20:33:37.794Z,92.10
2022-12-17T20:38:43.392Z,88.90
2022-12-17T20:43:47.596Z,72.30
2022-12-17T20:48:51.617Z,76.60
2022-12-17T20:53:57.081Z,79.90
2022-12-17T20:59:03.355Z,76.60
2022-12-17T21:04:08.009Z,68.80
2022-12-17T21:09:13.073Z,74.60
2022-12-17T21:14:30.445Z,66.20
2022-12-17T21:19:37.335Z,70.90
2022-12-17T21:24:44.415Z,72.30
2022-12-17T21:29:49.440Z,77.10
2022-12-17T21:34:53.802Z,75.50
2022-12-17T21:40:11.683Z,74.00
2022-12-17T21:45:15.786Z,79.60
2022-12-17T21:50:20.764Z,81.90
2022-12-17T21:55:25.177Z,82.40
2022-12-17T22:00:29.483Z,81.00
2022-12-17T22:05:48.183Z,76.60
2022-12-17T22:10:52.517Z,76.30
2022-12-17T22:15:56.966Z,69.50
2022-12-17T22:21:02.930Z,64.40
2022-12-17T22:26:11.262Z,74.70
2022-12-17T22:31:35.911Z,68.50
2022-12-17T22:39:03.449Z,75.00
2022-12-17T22:44:39.222Z,69.60
2022-12-17T22:48:04.869Z,64.50
2022-12-17T22:53:09.906Z,72.30
2022-12-17T22:58:18.045Z,61.30
2022-12-17T23:03:21.837Z,64.70
2022-12-17T23:08:25.884Z,68.00
2022-12-17T23:13:32.782Z,62.20
2022-12-17T23:18:36.976Z,64.20
2022-12-17T23:23:41.617Z,63.20
2022-12-17T23:28:46.094Z,64.40
2022-12-17T23:33:52.279Z,59.40
2022-12-17T23:39:09.571Z,59.60
2022-12-17T23:44:12.927Z,61.00
2022-12-17T23:49:16.599Z,56.30
2022-12-17T23:54:21.069Z,62.80
